createdAt,value
2024-04-19T00:00:55.296Z,100828.84
2024-04-19T00:03:28.576Z,100825.13
2024-04-19T00:05:55.599Z,100823.47
2024-04-19T00:08:34.924Z,100813.34
2024-04-19T00:11:02.171Z,100799.94
2024-04-19T00:13:31.990Z,100797.19
2024-04-19T00:16:01.776Z,100793.81
2024-04-19T00:18:32.450Z,100791.31
2024-04-19T00:21:00.379Z,100788.06
2024-04-19T00:23:30.235Z,100780.16
2024-04-19T00:25:58.257Z,100775.16
2024-04-19T00:28:40.306Z,100768.31
2024-04-19T00:31:09.928Z,100765.44
2024-04-19T00:33:39.779Z,100762.03
2024-04-19T00:36:06.999Z,100763.38
2024-04-19T00:38:36.745Z,100757.22
2024-04-19T00:41:03.917Z,100751.84
2024-04-19T00:43:33.641Z,100749.44
2024-04-19T00:46:01.034Z,100739.03
2024-04-19T00:48:33.319Z,100735.78
2024-04-19T00:51:03.211Z,100738.09
2024-04-19T00:53:35.179Z,100729.72
2024-04-19T00:56:22.384Z,100726.81
2024-04-19T00:58:54.220Z,100724.84
2024-04-19T01:01:25.305Z,100711.53
2024-04-19T01:04:01.465Z,100705.03
2024-04-19T01:06:29.358Z,100693.91
2024-04-19T01:08:58.950Z,100692.41
2024-04-19T01:11:32.216Z,100685.25
2024-04-19T01:14:01.898Z,100678.38
2024-04-19T01:16:29.237Z,100676.66
2024-04-19T01:19:01.897Z,100668.25
2024-04-19T01:21:29.970Z,100660.81
2024-04-19T01:24:08.495Z,100649.69
2024-04-19T01:26:41.281Z,100642.78
2024-04-19T01:29:10.969Z,100641.22
2024-04-19T01:31:38.203Z,100640.25
2024-04-19T01:34:08.184Z,100628.34
2024-04-19T01:36:36.440Z,100643.88
2024-04-19T01:39:07.012Z,100632.78
2024-04-19T01:41:34.165Z,100619.13
2024-04-19T01:44:06.653Z,100625.28
2024-04-19T01:46:34.097Z,100626.09
2024-04-19T01:49:03.706Z,100628.00
2024-04-19T01:51:33.410Z,100604.94
2024-04-19T01:54:00.599Z,100616.69
2024-04-19T01:56:30.409Z,100606.41
2024-04-19T01:58:57.337Z,100609.91
2024-04-19T02:01:31.921Z,100595.09
2024-04-19T02:04:01.768Z,100597.38
2024-04-19T02:06:29.059Z,100593.59
2024-04-19T02:08:58.856Z,100591.47
2024-04-19T02:11:28.198Z,100586.19
2024-04-19T02:13:57.860Z,100575.09
2024-04-19T02:16:28.091Z,100567.47
2024-04-19T02:18:57.664Z,100565.91
2024-04-19T02:21:28.894Z,100554.53
2024-04-19T02:24:02.378Z,100548.88
2024-04-19T02:26:30.141Z,100559.94
2024-04-19T02:29:15.608Z,100542.25
2024-04-19T02:31:47.942Z,100537.38
2024-04-19T02:34:18.152Z,100540.31
2024-04-19T02:36:47.997Z,100529.13
2024-04-19T02:39:17.674Z,100516.81
2024-04-19T02:41:47.316Z,100512.31
2024-04-19T02:44:16.873Z,100516.13
2024-04-19T02:46:51.683Z,100509.00
2024-04-19T02:49:21.295Z,100501.47
2024-04-19T02:51:50.920Z,100489.81
2024-04-19T02:54:20.612Z,100483.69
2024-04-19T02:56:50.437Z,100475.53
2024-04-19T02:59:19.951Z,100475.03
2024-04-19T03:01:52.493Z,100465.22
2024-04-19T03:04:37.722Z,100453.13
2024-04-19T03:07:07.762Z,100456.53
2024-04-19T03:09:37.357Z,100449.44
2024-04-19T03:12:08.102Z,100442.13
2024-04-19T03:14:37.637Z,100430.94
2024-04-19T03:17:12.595Z,100414.06
2024-04-19T03:19:45.223Z,100422.00
2024-04-19T03:22:15.073Z,100405.53
2024-04-19T03:24:46.905Z,100390.25
2024-04-19T03:27:18.069Z,100387.84
2024-04-19T03:29:58.711Z,100373.56
2024-04-19T03:32:31.102Z,100371.34
2024-04-19T03:35:01.526Z,100373.25
2024-04-19T03:37:31.144Z,100363.50
2024-04-19T03:40:00.832Z,100363.19
2024-04-19T03:42:30.533Z,100349.63
2024-04-19T03:45:16.633Z,100350.28
2024-04-19T03:47:49.225Z,100331.31
2024-04-19T03:50:18.796Z,100322.84
2024-04-19T03:52:48.649Z,100314.97
2024-04-19T03:55:18.440Z,100301.75
2024-04-19T03:57:48.681Z,100295.41
2024-04-19T04:00:19.029Z,100294.91
2024-04-19T04:02:53.881Z,100281.25
2024-04-19T04:05:23.457Z,100280.66
2024-04-19T04:07:53.628Z,100272.72
2024-04-19T04:10:23.147Z,100266.84
2024-04-19T04:12:56.288Z,100261.78
2024-04-19T04:15:27.530Z,100261.03
2024-04-19T04:18:02.195Z,100246.19
2024-04-19T04:20:32.299Z,100246.84
2024-04-19T04:23:03.196Z,100240.22
2024-04-19T04:25:37.502Z,100231.81
2024-04-19T04:28:07.576Z,100233.44
2024-04-19T04:30:41.454Z,100218.63
2024-04-19T04:33:15.178Z,100209.28
2024-04-19T04:35:44.972Z,100204.81
2024-04-19T04:38:15.044Z,100188.25
2024-04-19T04:40:44.806Z,100198.09
2024-04-19T04:43:17.720Z,100182.34
2024-04-19T04:45:49.369Z,100183.31
2024-04-19T04:48:23.017Z,100187.38
2024-04-19T04:50:53.033Z,100187.81
2024-04-19T04:53:22.581Z,100173.28
2024-04-19T04:55:53.289Z,100174.53
2024-04-19T04:58:22.853Z,100166.47
2024-04-19T05:00:54.740Z,100166.88
2024-04-19T05:03:26.973Z,100160.19
2024-04-19T05:05:56.571Z,100141.91
2024-04-19T05:08:26.114Z,100143.53
2024-04-19T05:10:56.027Z,100140.75
2024-04-19T05:13:28.034Z,100142.22
2024-04-19T05:15:58.551Z,100137.28
2024-04-19T05:18:32.674Z,100118.53
2024-04-19T05:21:02.891Z,100132.44
2024-04-19T05:23:32.462Z,100122.88
2024-04-19T05:26:07.121Z,100110.34
2024-04-19T05:28:36.708Z,100108.44
2024-04-19T05:31:06.492Z,100100.22
2024-04-19T05:33:38.685Z,100100.53
2024-04-19T05:36:09.581Z,100097.03
2024-04-19T05:38:39.694Z,100092.91
2024-04-19T05:41:09.234Z,100092.69
2024-04-19T05:43:39.528Z,100079.06
2024-04-19T05:46:13.526Z,100082.59
2024-04-19T05:48:47.853Z,100077.47
2024-04-19T05:51:22.571Z,100068.69
2024-04-19T05:53:52.927Z,100064.97
2024-04-19T05:56:23.728Z,100070.84
2024-04-19T05:58:53.240Z,100056.31
2024-04-19T06:01:22.922Z,100052.13
2024-04-19T06:03:56.079Z,100043.97
2024-04-19T06:06:26.258Z,100045.38
2024-04-19T06:08:56.120Z,100044.69
2024-04-19T06:11:26.436Z,100040.09
2024-04-19T06:13:57.366Z,100034.72
2024-04-19T06:16:27.188Z,100035.69
2024-04-19T06:19:00.806Z,100023.00
2024-04-19T06:21:31.122Z,100020.25
2024-04-19T06:24:00.759Z,100008.84
2024-04-19T06:26:30.369Z,100005.78
2024-04-19T06:29:00.075Z,100010.63
2024-04-19T06:31:29.678Z,99999.13
2024-04-19T06:34:01.940Z,100007.75
2024-04-19T06:36:31.707Z,99999.78
2024-04-19T06:39:04.222Z,99990.19
2024-04-19T06:41:36.874Z,99987.97
2024-04-19T06:44:07.825Z,99982.28
2024-04-19T06:46:37.720Z,99987.34
2024-04-19T06:49:09.925Z,99967.19
2024-04-19T06:51:44.375Z,99969.97
2024-04-19T06:54:14.878Z,99969.47
2024-04-19T06:56:44.637Z,99969.19
2024-04-19T06:59:15.290Z,99973.91
2024-04-19T07:01:45.247Z,99962.34
2024-04-19T07:04:17.583Z,99956.16
2024-04-19T07:06:48.458Z,99953.63
2024-04-19T07:09:17.131Z,99945.16
2024-04-19T07:11:51.369Z,99930.31
2024-04-19T07:14:25.454Z,99932.63
2024-04-19T07:16:55.863Z,99939.00
2024-04-19T07:19:28.353Z,99928.69
2024-04-19T07:21:58.042Z,99925.16
2024-04-19T07:24:27.780Z,99931.03
2024-04-19T07:26:57.964Z,99925.47
2024-04-19T07:29:27.517Z,99915.97
2024-04-19T07:31:57.145Z,99915.84
2024-04-19T07:34:29.535Z,99904.63
2024-04-19T07:36:59.369Z,99912.72
2024-04-19T07:39:29.221Z,99918.38
2024-04-19T07:42:01.345Z,99912.78
2024-04-19T07:44:30.952Z,99912.13
2024-04-19T07:47:01.564Z,99911.81
2024-04-19T07:49:33.962Z,99913.53
2024-04-19T07:52:04.360Z,99904.72
2024-04-19T07:54:37.272Z,99899.09
2024-04-19T07:57:07.420Z,99913.44
2024-04-19T07:59:37.060Z,99902.50
2024-04-19T08:02:07.419Z,99908.66
2024-04-19T08:04:44.200Z,99890.78
2024-04-19T08:07:23.812Z,99890.34
2024-04-19T08:09:58.225Z,99884.97
2024-04-19T08:12:27.939Z,99882.31
2024-04-19T08:14:57.562Z,99883.94
2024-04-19T08:17:29.773Z,99877.84
2024-04-19T08:20:02.089Z,99878.03
2024-04-19T08:22:31.959Z,99870.13
2024-04-19T08:25:01.822Z,99862.66
2024-04-19T08:27:31.602Z,99866.25
2024-04-19T08:30:01.238Z,99859.66
2024-04-19T08:32:31.617Z,99857.41
2024-04-19T08:35:05.077Z,99855.88
2024-04-19T08:37:35.071Z,99855.28
2024-04-19T08:40:06.457Z,99850.88
2024-04-19T08:42:36.343Z,99850.16
2024-04-19T08:45:07.884Z,99841.63
2024-04-19T08:47:38.969Z,99845.81
2024-04-19T08:50:11.951Z,99842.94
2024-04-19T08:53:08.337Z,99848.22
2024-04-19T08:55:36.155Z,99838.13
2024-04-19T08:58:06.421Z,99838.03
2024-04-19T09:00:36.388Z,99845.09
2024-04-19T09:03:07.141Z,99839.75
2024-04-19T09:05:39.581Z,99835.28
2024-04-19T09:08:10.564Z,99836.84
2024-04-19T09:10:40.140Z,99825.69
2024-04-19T09:13:07.115Z,99815.38
2024-04-19T09:15:37.960Z,99814.72
2024-04-19T09:18:08.964Z,99799.88
2024-04-19T09:20:46.009Z,99808.72
2024-04-19T09:23:15.586Z,99801.81
2024-04-19T09:25:45.154Z,99796.09
2024-04-19T09:28:16.263Z,99792.38
2024-04-19T09:30:46.513Z,99792.56
2024-04-19T09:33:21.014Z,99802.56
2024-04-19T09:35:57.111Z,99783.56
2024-04-19T09:38:27.712Z,99782.28
2024-04-19T09:40:57.372Z,99782.25
2024-04-19T09:43:27.497Z,99783.50
2024-04-19T09:45:59.228Z,99779.53
2024-04-19T09:48:33.563Z,99782.66
2024-04-19T09:51:08.926Z,99786.50
2024-04-19T09:53:41.807Z,99780.84
2024-04-19T09:56:18.221Z,99775.09
2024-04-19T09:58:49.229Z,99769.69
2024-04-19T10:01:19.644Z,99769.53
2024-04-19T10:03:51.093Z,99769.72
2024-04-19T10:06:26.957Z,99764.69
2024-04-19T10:08:59.526Z,99761.19
2024-04-19T10:11:29.350Z,99767.16
2024-04-19T10:13:59.046Z,99769.91
2024-04-19T10:16:28.544Z,99769.97
2024-04-19T10:18:58.289Z,99765.41
2024-04-19T10:21:31.597Z,99762.81
2024-04-19T10:24:01.197Z,99765.66
2024-04-19T10:26:32.230Z,99756.13
2024-04-19T10:29:01.725Z,99757.94
2024-04-19T10:31:33.194Z,99748.75
2024-04-19T10:34:03.089Z,99746.03
2024-04-19T10:36:36.115Z,99736.25
2024-04-19T10:39:06.211Z,99728.72
2024-04-19T10:41:35.729Z,99727.81
2024-04-19T10:44:05.553Z,99721.88
2024-04-19T10:46:37.136Z,99715.03
2024-04-19T10:49:07.913Z,99716.53
2024-04-19T10:51:40.657Z,99712.41
2024-04-19T10:54:12.103Z,99709.84
2024-04-19T10:56:41.675Z,99711.38
2024-04-19T10:59:12.778Z,99706.41
2024-04-19T11:01:44.009Z,99701.25
2024-04-19T11:04:13.903Z,99699.81
2024-04-19T11:06:46.311Z,99699.69
2024-04-19T11:09:18.148Z,99699.97
2024-04-19T11:11:47.974Z,99699.53
2024-04-19T11:14:20.194Z,99717.94
2024-04-19T11:16:49.922Z,99719.31
2024-04-19T11:19:20.917Z,99724.94
2024-04-19T11:21:55.277Z,99709.28
2024-04-19T11:24:25.559Z,99691.53
2024-04-19T11:26:56.056Z,99695.66
2024-04-19T11:29:25.815Z,99684.31
2024-04-19T11:31:55.672Z,99676.06
2024-04-19T11:34:32.349Z,99671.81
2024-04-19T11:37:06.534Z,99665.56
2024-04-19T11:39:37.087Z,99667.28
2024-04-19T11:42:07.793Z,99660.81
2024-04-19T11:44:41.480Z,99651.72
2024-04-19T11:47:11.741Z,99650.13
2024-04-19T11:49:41.344Z,99645.59
2024-04-19T11:52:14.072Z,99646.66
2024-04-19T11:54:45.029Z,99641.44
2024-04-19T11:57:15.547Z,99639.63
2024-04-19T11:59:45.163Z,99641.16
2024-04-19T12:02:14.765Z,99630.31
2024-04-19T12:04:44.991Z,99633.00
2024-04-19T12:07:18.982Z,99639.72
2024-04-19T12:09:49.086Z,99648.44
2024-04-19T12:13:08.744Z,99654.66
2024-04-19T12:15:59.494Z,99658.94
2024-04-19T12:18:03.763Z,99661.94
2024-04-19T12:20:46.991Z,99668.66
2024-04-19T12:23:28.719Z,99682.06
2024-04-19T12:26:00.003Z,99695.41
2024-04-19T12:28:48.295Z,99709.94
2024-04-19T12:31:39.942Z,99715.88
2024-04-19T12:37:06.838Z,99689.25
2024-04-19T12:39:46.827Z,99680.94
2024-04-19T12:42:19.793Z,99668.84
2024-04-19T12:44:52.365Z,99669.97
2024-04-19T12:47:26.197Z,99675.06
2024-04-19T12:49:57.460Z,99676.94
2024-04-19T12:52:31.930Z,99671.78
2024-04-19T12:55:08.296Z,99684.03
2024-04-19T12:57:40.369Z,99670.41
2024-04-19T13:00:14.618Z,99665.72
2024-04-19T13:02:44.557Z,99665.88
2024-04-19T13:05:16.928Z,99653.53
2024-04-19T13:07:49.847Z,99648.03
2024-04-19T13:10:26.552Z,99642.56
2024-04-19T13:13:02.799Z,99645.09
2024-04-19T13:15:33.469Z,99638.72
2024-04-19T13:18:03.849Z,99634.44
2024-04-19T13:20:37.022Z,99638.66
2024-04-19T13:23:07.186Z,99636.31
2024-04-19T13:25:42.426Z,99635.31
2024-04-19T13:28:15.074Z,99635.41
2024-04-19T13:30:45.335Z,99638.59
2024-04-19T13:33:18.218Z,99639.31
2024-04-19T13:36:18.130Z,99627.28
2024-04-19T13:38:48.821Z,99622.50
2024-04-19T13:41:21.805Z,99635.44
2024-04-19T13:43:52.929Z,99644.72
2024-04-19T13:46:27.784Z,99635.13
2024-04-19T13:49:02.650Z,99638.09
2024-04-19T13:51:33.373Z,99635.78
2024-04-19T13:54:03.839Z,99651.19
2024-04-19T13:56:42.721Z,99632.84
2024-04-19T13:59:15.934Z,99634.16
2024-04-19T14:01:46.556Z,99634.78
2024-04-19T14:07:33.074Z,99629.19
2024-04-19T14:10:09.248Z,99633.84
2024-04-19T14:12:42.986Z,99636.09
2024-04-19T14:15:16.475Z,99639.09
2024-04-19T14:17:48.284Z,99643.69
2024-04-19T14:20:22.769Z,99655.00
2024-04-19T14:22:52.687Z,99639.13
2024-04-19T14:25:24.208Z,99644.91
2024-04-19T14:27:57.734Z,99637.69
2024-04-19T14:33:34.269Z,99646.78
2024-04-19T14:38:49.923Z,99636.13
2024-04-19T14:41:26.293Z,99644.28
2024-04-19T14:43:58.807Z,99641.28
2024-04-19T14:46:30.463Z,99648.03
2024-04-19T14:49:03.921Z,99646.03
2024-04-19T14:51:36.145Z,99635.69
2024-04-19T14:54:08.881Z,99624.59
2024-04-19T14:56:44.658Z,99632.16
2024-04-19T14:59:26.496Z,99628.94
2024-04-19T15:02:03.136Z,99631.84
2024-04-19T15:04:34.283Z,99636.75
2024-04-19T15:07:07.336Z,99622.78
2024-04-19T15:09:37.776Z,99632.63
2024-04-19T15:12:09.957Z,99619.44
2024-04-19T15:14:43.961Z,99621.63
2024-04-19T15:17:19.518Z,99616.56
2024-04-19T15:19:50.908Z,99623.94
2024-04-19T15:22:28.792Z,99612.25
2024-04-19T15:25:02.958Z,99607.19
2024-04-19T15:27:49.682Z,99607.25
2024-04-19T15:30:41.736Z,99598.78
2024-04-19T15:35:47.378Z,99602.97
2024-04-19T15:38:18.191Z,99615.41
2024-04-19T15:40:49.439Z,99600.16
2024-04-19T15:43:25.452Z,99613.88
2024-04-19T15:45:59.823Z,99617.75
2024-04-19T15:48:30.877Z,99609.09
2024-04-19T15:51:03.348Z,99615.97
2024-04-19T15:56:30.353Z,99627.78
2024-04-19T15:59:00.520Z,99629.66
2024-04-19T16:01:40.537Z,99641.47
2024-04-19T16:04:14.374Z,99647.66
2024-04-19T16:06:46.821Z,99643.34
2024-04-19T16:09:22.765Z,99643.94
2024-04-19T16:11:52.702Z,99637.88
2024-04-19T16:14:34.393Z,99633.41
2024-04-19T16:17:15.384Z,99623.53
2024-04-19T16:19:59.552Z,99626.91
2024-04-19T16:22:32.524Z,99637.66
2024-04-19T16:25:09.923Z,99635.88
2024-04-19T16:27:40.368Z,99636.59
2024-04-19T16:30:15.092Z,99646.19
2024-04-19T16:32:57.750Z,99657.50
2024-04-19T16:35:28.913Z,99647.66
2024-04-19T16:38:00.884Z,99648.59
2024-04-19T16:40:32.166Z,99662.09
2024-04-19T16:43:14.331Z,99658.56
2024-04-19T16:45:50.297Z,99646.09
2024-04-19T16:48:24.401Z,99664.84
2024-04-19T16:50:59.121Z,99657.53
2024-04-19T16:53:32.998Z,99666.91
2024-04-19T16:56:06.219Z,99666.03
2024-04-19T16:58:38.290Z,99675.16
2024-04-19T17:01:09.839Z,99661.69
2024-04-19T17:06:56.908Z,99683.25
2024-04-19T17:19:22.593Z,99676.94
2024-04-19T17:25:36.303Z,99677.97
2024-04-19T17:28:17.570Z,99680.59
2024-04-19T17:30:53.127Z,99682.22
2024-04-19T17:33:26.872Z,99691.88
2024-04-19T17:36:05.842Z,99688.50
2024-04-19T17:38:55.408Z,99686.91
2024-04-19T17:53:19.296Z,99693.66
2024-04-19T18:06:00.221Z,99694.06
2024-04-19T18:14:18.633Z,99755.66
2024-04-19T18:16:50.264Z,99732.44
2024-04-19T18:19:25.798Z,99741.53
2024-04-19T18:21:57.858Z,99741.53
2024-04-19T18:24:31.747Z,99735.94
2024-04-19T18:27:02.102Z,99740.84
2024-04-19T18:29:40.745Z,99751.94
2024-04-19T18:32:11.698Z,99739.34
2024-04-19T18:35:38.572Z,99748.72
2024-04-19T18:38:10.233Z,99744.72
2024-04-19T18:43:29.329Z,99756.56
2024-04-19T18:46:03.370Z,99754.09
2024-04-19T18:48:42.326Z,99762.47
2024-04-19T18:51:23.932Z,99768.16
2024-04-19T18:53:59.434Z,99778.47
2024-04-19T18:56:38.978Z,99779.41
2024-04-19T18:59:10.937Z,99786.47
2024-04-19T19:01:47.589Z,99778.69
2024-04-19T19:04:17.993Z,99790.34
2024-04-19T19:07:01.483Z,99789.72
2024-04-19T19:09:37.366Z,99794.44
2024-04-19T19:12:11.792Z,99807.00
2024-04-19T19:14:45.257Z,99812.88
2024-04-19T19:17:16.005Z,99832.53
2024-04-19T19:20:07.082Z,99829.44
2024-04-19T19:22:42.404Z,99835.25
2024-04-19T19:25:26.691Z,99849.81
2024-04-19T19:27:57.156Z,99839.91
2024-04-19T19:30:27.891Z,99863.16
2024-04-19T19:39:01.384Z,99867.97
2024-04-19T19:41:33.665Z,99884.97
2024-04-19T19:44:03.914Z,99876.28
2024-04-19T19:46:38.448Z,99883.53
2024-04-19T19:55:45.097Z,99879.09
2024-04-19T19:58:19.022Z,99915.03
2024-04-19T20:07:24.293Z,99919.38
2024-04-19T20:10:12.819Z,99924.97
2024-04-19T20:13:08.411Z,99921.00
2024-04-19T20:15:43.149Z,99920.59
2024-04-19T20:18:19.038Z,99934.56
2024-04-19T20:20:53.970Z,99933.44
2024-04-19T20:23:25.619Z,99954.97
2024-04-19T20:25:57.430Z,99954.47
2024-04-19T20:28:30.219Z,99948.41
2024-04-19T20:31:00.567Z,99957.69
2024-04-19T20:33:34.026Z,99934.44
2024-04-19T20:36:07.413Z,99972.22
2024-04-19T20:38:42.595Z,99977.50
2024-04-19T20:44:20.401Z,100004.16
2024-04-19T20:46:50.103Z,100005.97
2024-04-19T20:49:20.294Z,100024.78
2024-04-19T20:51:52.497Z,100035.28
2024-04-19T20:54:23.472Z,100049.13
2024-04-19T20:56:53.219Z,100043.97
2024-04-19T20:59:30.401Z,100041.13
2024-04-19T21:02:14.592Z,100050.47
2024-04-19T21:04:44.185Z,100062.47
2024-04-19T21:07:14.199Z,100052.88
2024-04-19T21:09:45.424Z,100057.47
2024-04-19T21:12:18.983Z,100070.84
2024-04-19T21:14:53.535Z,100080.56
2024-04-19T21:17:30.026Z,100088.16
2024-04-19T21:20:00.600Z,100084.59
2024-04-19T21:22:32.292Z,100094.44
2024-04-19T21:25:03.527Z,100104.44
2024-04-19T21:27:35.337Z,100105.56
2024-04-19T21:30:17.246Z,100110.25
2024-04-19T21:32:48.224Z,100114.34
2024-04-19T21:35:20.950Z,100130.00
2024-04-19T21:37:48.142Z,100133.84
2024-04-19T21:40:18.916Z,100142.13
2024-04-19T21:42:52.741Z,100133.34
2024-04-19T21:45:26.299Z,100151.13
2024-04-19T21:47:56.306Z,100139.44
2024-04-19T21:50:26.265Z,100153.63
2024-04-19T21:52:55.847Z,100168.38
2024-04-19T21:58:12.700Z,100129.19
2024-04-19T22:00:48.313Z,100179.63
2024-04-19T22:03:18.069Z,100185.16
2024-04-19T22:05:48.356Z,100182.25
2024-04-19T22:08:19.122Z,100196.91
2024-04-19T22:10:49.926Z,100207.81
2024-04-19T22:13:21.964Z,100200.72
2024-04-19T22:15:54.930Z,100207.50
2024-04-19T22:18:24.559Z,100214.22
2024-04-19T22:21:07.311Z,100221.06
2024-04-19T22:23:38.299Z,100227.69
2024-04-19T22:26:11.510Z,100233.31
2024-04-19T22:32:04.176Z,100243.22
2024-04-19T22:34:39.747Z,100250.09
2024-04-19T22:53:05.578Z,100292.16
2024-04-19T22:56:08.744Z,100298.16
2024-04-19T23:01:40.009Z,100297.47
2024-04-19T23:07:19.823Z,100306.03
2024-04-19T23:10:04.054Z,100320.25
2024-04-19T23:12:34.634Z,100333.88
2024-04-19T23:15:08.766Z,100313.38
2024-04-19T23:17:43.434Z,100319.22
2024-04-19T23:20:14.371Z,100335.09
2024-04-19T23:22:45.186Z,100332.97
2024-04-19T23:25:16.005Z,100347.50
2024-04-19T23:27:49.480Z,100341.22
2024-04-19T23:31:34.664Z,100359.19
2024-04-19T23:34:08.164Z,100350.28
2024-04-19T23:36:40.325Z,100370.97
2024-04-19T23:39:11.845Z,100375.09
2024-04-19T23:41:42.527Z,100377.31
2024-04-19T23:44:14.684Z,100377.75
2024-04-19T23:46:45.041Z,100385.63
2024-04-19T23:49:19.880Z,100386.59
2024-04-19T23:51:52.043Z,100395.50
2024-04-19T23:54:22.428Z,100397.56
2024-04-19T23:56:54.037Z,100401.91
2024-04-19T23:59:24.816Z,100414.31
